sensor_id;sensor_type;location;lat;lon;timestamp;pressure;altitude;pressure_sealevel;temperature;humidity
77005;BME280;67261;53.132;18.006;2023-12-28T00:00:45;101242.60;;;1.68;82.11
77005;BME280;67261;53.132;18.006;2023-12-28T00:03:32;101244.73;;;1.64;82.24
77005;BME280;67261;53.132;18.006;2023-12-28T00:05:59;101242.96;;;1.61;82.28
77005;BME280;67261;53.132;18.006;2023-12-28T00:08:26;101245.75;;;1.61;82.32
77005;BME280;67261;53.132;18.006;2023-12-28T00:10:53;101239.52;;;1.61;82.14
77005;BME280;67261;53.132;18.006;2023-12-28T00:13:20;101234.02;;;1.60;82.21
77005;BME280;67261;53.132;18.006;2023-12-28T00:15:47;101229.43;;;1.57;82.34
77005;BME280;67261;53.132;18.006;2023-12-28T00:18:14;101222.48;;;1.57;82.55
77005;BME280;67261;53.132;18.006;2023-12-28T00:20:41;101218.21;;;1.55;82.42
77005;BME280;67261;53.132;18.006;2023-12-28T00:23:08;101217.50;;;1.52;82.64
77005;BME280;67261;53.132;18.006;2023-12-28T00:25:35;101215.05;;;1.52;82.61
77005;BME280;67261;53.132;18.006;2023-12-28T00:28:02;101203.91;;;1.52;82.62
77005;BME280;67261;53.132;18.006;2023-12-28T00:30:29;101193.08;;;1.52;82.46
77005;BME280;67261;53.132;18.006;2023-12-28T00:32:56;101186.10;;;1.53;82.58
77005;BME280;67261;53.132;18.006;2023-12-28T00:35:23;101174.04;;;1.53;82.58
77005;BME280;67261;53.132;18.006;2023-12-28T00:37:51;101170.47;;;1.55;82.55
77005;BME280;67261;53.132;18.006;2023-12-28T00:40:18;101164.17;;;1.55;82.66
77005;BME280;67261;53.132;18.006;2023-12-28T00:42:46;101164.14;;;1.55;82.78
77005;BME280;67261;53.132;18.006;2023-12-28T00:45:13;101159.50;;;1.54;82.74
77005;BME280;67261;53.132;18.006;2023-12-28T00:47:39;101152.14;;;1.52;82.57
77005;BME280;67261;53.132;18.006;2023-12-28T00:50:09;101141.95;;;1.47;82.70
77005;BME280;67261;53.132;18.006;2023-12-28T00:52:42;101134.70;;;1.46;82.64
77005;BME280;67261;53.132;18.006;2023-12-28T00:55:10;101136.56;;;1.43;82.70
77005;BME280;67261;53.132;18.006;2023-12-28T00:57:37;101138.52;;;1.43;82.86
77005;BME280;67261;53.132;18.006;2023-12-28T01:00:04;101135.59;;;1.42;82.83
77005;BME280;67261;53.132;18.006;2023-12-28T01:02:31;101132.27;;;1.39;82.86
77005;BME280;67261;53.132;18.006;2023-12-28T01:05:01;101134.36;;;1.39;82.86
77005;BME280;67261;53.132;18.006;2023-12-28T01:07:28;101117.14;;;1.35;83.04
77005;BME280;67261;53.132;18.006;2023-12-28T01:09:55;101109.47;;;1.33;82.87
77005;BME280;67261;53.132;18.006;2023-12-28T01:12:22;101101.61;;;1.30;83.00
77005;BME280;67261;53.132;18.006;2023-12-28T01:14:49;101098.92;;;1.28;83.02
77005;BME280;67261;53.132;18.006;2023-12-28T01:17:16;101095.20;;;1.26;83.17
77005;BME280;67261;53.132;18.006;2023-12-28T01:19:43;101097.80;;;1.23;83.11
77005;BME280;67261;53.132;18.006;2023-12-28T01:22:11;101088.50;;;1.21;83.30
77005;BME280;67261;53.132;18.006;2023-12-28T01:24:38;101086.62;;;1.20;83.46
77005;BME280;67261;53.132;18.006;2023-12-28T01:27:05;101087.13;;;1.20;83.34
77005;BME280;67261;53.132;18.006;2023-12-28T01:29:32;101091.92;;;1.19;83.16
77005;BME280;67261;53.132;18.006;2023-12-28T01:32:03;101096.63;;;1.19;83.20
77005;BME280;67261;53.132;18.006;2023-12-28T01:34:30;101099.25;;;1.19;83.21
77005;BME280;67261;53.132;18.006;2023-12-28T01:37:00;101099.13;;;1.21;83.20
77005;BME280;67261;53.132;18.006;2023-12-28T01:39:27;101096.55;;;1.24;83.05
77005;BME280;67261;53.132;18.006;2023-12-28T01:41:55;101086.20;;;1.25;83.08
77005;BME280;67261;53.132;18.006;2023-12-28T01:44:22;101076.58;;;1.26;82.99
77005;BME280;67261;53.132;18.006;2023-12-28T01:46:49;101058.35;;;1.24;82.95
77005;BME280;67261;53.132;18.006;2023-12-28T01:49:17;101048.71;;;1.25;83.11
77005;BME280;67261;53.132;18.006;2023-12-28T01:51:45;101045.55;;;1.26;82.97
77005;BME280;67261;53.132;18.006;2023-12-28T01:54:13;101042.46;;;1.25;82.91
77005;BME280;67261;53.132;18.006;2023-12-28T01:56:42;101034.06;;;1.25;82.95
77005;BME280;67261;53.132;18.006;2023-12-28T01:59:10;101027.09;;;1.25;82.92
77005;BME280;67261;53.132;18.006;2023-12-28T02:01:37;101013.80;;;1.26;83.05
77005;BME280;67261;53.132;18.006;2023-12-28T02:04:05;101007.09;;;1.28;82.86
77005;BME280;67261;53.132;18.006;2023-12-28T02:06:33;101005.91;;;1.30;82.76
77005;BME280;67261;53.132;18.006;2023-12-28T02:09:00;100995.26;;;1.33;82.65
77005;BME280;67261;53.132;18.006;2023-12-28T02:11:27;100991.63;;;1.36;82.62
77005;BME280;67261;53.132;18.006;2023-12-28T02:13:54;100979.42;;;1.39;82.63
77005;BME280;67261;53.132;18.006;2023-12-28T02:16:38;100973.70;;;1.41;82.52
77005;BME280;67261;53.132;18.006;2023-12-28T02:19:25;100963.50;;;1.46;82.49
77005;BME280;67261;53.132;18.006;2023-12-28T02:21:59;100959.21;;;1.50;82.25
77005;BME280;67261;53.132;18.006;2023-12-28T02:24:27;100954.53;;;1.56;82.03
77005;BME280;67261;53.132;18.006;2023-12-28T02:26:55;100952.63;;;1.58;81.78
77005;BME280;67261;53.132;18.006;2023-12-28T02:29:21;100943.16;;;1.62;81.80
77005;BME280;67261;53.132;18.006;2023-12-28T02:31:56;100936.98;;;1.66;81.70
77005;BME280;67261;53.132;18.006;2023-12-28T02:34:29;100927.66;;;1.70;81.53
77005;BME280;67261;53.132;18.006;2023-12-28T02:36:59;100918.56;;;1.74;81.27
77005;BME280;67261;53.132;18.006;2023-12-28T02:39:29;100916.96;;;1.77;81.16
77005;BME280;67261;53.132;18.006;2023-12-28T02:41:57;100908.31;;;1.79;81.17
77005;BME280;67261;53.132;18.006;2023-12-28T02:44:24;100902.60;;;1.81;80.97
77005;BME280;67261;53.132;18.006;2023-12-28T02:46:51;100884.88;;;1.82;81.00
77005;BME280;67261;53.132;18.006;2023-12-28T02:49:18;100871.66;;;1.85;80.86
77005;BME280;67261;53.132;18.006;2023-12-28T02:51:45;100866.33;;;1.86;80.73
77005;BME280;67261;53.132;18.006;2023-12-28T02:54:12;100861.62;;;1.86;80.85
77005;BME280;67261;53.132;18.006;2023-12-28T02:56:40;100845.09;;;1.86;80.63
77005;BME280;67261;53.132;18.006;2023-12-28T02:59:08;100842.88;;;1.85;80.69
77005;BME280;67261;53.132;18.006;2023-12-28T03:01:35;100841.58;;;1.86;80.68
77005;BME280;67261;53.132;18.006;2023-12-28T03:04:02;100840.67;;;1.86;80.88
77005;BME280;67261;53.132;18.006;2023-12-28T03:06:29;100822.50;;;1.87;80.61
77005;BME280;67261;53.132;18.006;2023-12-28T03:08:56;100806.77;;;1.88;80.57
77005;BME280;67261;53.132;18.006;2023-12-28T03:11:23;100800.63;;;1.88;80.65
77005;BME280;67261;53.132;18.006;2023-12-28T03:13:52;100804.48;;;1.88;80.49
77005;BME280;67261;53.132;18.006;2023-12-28T03:16:19;100800.28;;;1.88;80.58
77005;BME280;67261;53.132;18.006;2023-12-28T03:18:46;100799.86;;;1.89;80.40
77005;BME280;67261;53.132;18.006;2023-12-28T03:21:13;100791.33;;;1.89;80.48
77005;BME280;67261;53.132;18.006;2023-12-28T03:23:40;100789.09;;;1.88;80.41
77005;BME280;67261;53.132;18.006;2023-12-28T03:26:07;100781.66;;;1.87;80.40
77005;BME280;67261;53.132;18.006;2023-12-28T03:28:34;100775.88;;;1.88;80.53
77005;BME280;67261;53.132;18.006;2023-12-28T03:31:02;100769.78;;;1.87;80.36
77005;BME280;67261;53.132;18.006;2023-12-28T03:33:29;100775.64;;;1.88;80.42
77005;BME280;67261;53.132;18.006;2023-12-28T03:35:56;100782.11;;;1.88;80.55
77005;BME280;67261;53.132;18.006;2023-12-28T03:38:24;100784.66;;;1.89;80.53
77005;BME280;67261;53.132;18.006;2023-12-28T03:40:53;100779.37;;;1.90;80.47
77005;BME280;67261;53.132;18.006;2023-12-28T03:43:20;100770.07;;;1.91;80.35
77005;BME280;67261;53.132;18.006;2023-12-28T03:45:47;100773.24;;;1.93;80.48
77005;BME280;67261;53.132;18.006;2023-12-28T03:48:14;100775.44;;;1.95;80.53
77005;BME280;67261;53.132;18.006;2023-12-28T03:50:41;100772.58;;;1.96;80.31
77005;BME280;67261;53.132;18.006;2023-12-28T03:53:08;100764.58;;;1.96;80.43
77005;BME280;67261;53.132;18.006;2023-12-28T03:55:35;100754.69;;;1.95;80.40
77005;BME280;67261;53.132;18.006;2023-12-28T03:58:01;100747.34;;;1.95;80.38
77005;BME280;67261;53.132;18.006;2023-12-28T04:00:28;100742.94;;;1.96;80.60
77005;BME280;67261;53.132;18.006;2023-12-28T04:02:55;100744.39;;;1.95;80.44
77005;BME280;67261;53.132;18.006;2023-12-28T04:05:25;100738.27;;;1.95;80.50
77005;BME280;67261;53.132;18.006;2023-12-28T04:07:52;100718.41;;;1.95;80.49
77005;BME280;67261;53.132;18.006;2023-12-28T04:10:29;100725.86;;;1.92;80.57
77005;BME280;67261;53.132;18.006;2023-12-28T04:13:00;100720.66;;;1.92;80.62
77005;BME280;67261;53.132;18.006;2023-12-28T04:15:27;100709.16;;;1.92;80.68
77005;BME280;67261;53.132;18.006;2023-12-28T04:17:54;100686.26;;;1.89;80.73
77005;BME280;67261;53.132;18.006;2023-12-28T04:20:21;100693.15;;;1.88;80.59
77005;BME280;67261;53.132;18.006;2023-12-28T04:22:48;100709.70;;;1.89;80.90
77005;BME280;67261;53.132;18.006;2023-12-28T04:25:15;100710.64;;;1.88;80.84
77005;BME280;67261;53.132;18.006;2023-12-28T04:27:45;100697.92;;;1.87;80.80
77005;BME280;67261;53.132;18.006;2023-12-28T04:30:12;100685.03;;;1.87;80.89
77005;BME280;67261;53.132;18.006;2023-12-28T04:32:40;100676.01;;;1.86;80.71
77005;BME280;67261;53.132;18.006;2023-12-28T04:35:10;100664.94;;;1.85;80.95
77005;BME280;67261;53.132;18.006;2023-12-28T04:37:37;100653.38;;;1.86;80.89
77005;BME280;67261;53.132;18.006;2023-12-28T04:40:05;100642.15;;;1.87;80.99
77005;BME280;67261;53.132;18.006;2023-12-28T04:42:32;100648.73;;;1.87;81.06
77005;BME280;67261;53.132;18.006;2023-12-28T04:44:59;100662.94;;;1.86;80.98
77005;BME280;67261;53.132;18.006;2023-12-28T04:47:26;100665.65;;;1.87;81.00
77005;BME280;67261;53.132;18.006;2023-12-28T04:49:53;100676.56;;;1.88;81.12
77005;BME280;67261;53.132;18.006;2023-12-28T04:52:21;100688.85;;;1.90;81.21
77005;BME280;67261;53.132;18.006;2023-12-28T04:54:49;100684.91;;;1.92;81.29
77005;BME280;67261;53.132;18.006;2023-12-28T04:57:16;100678.66;;;1.94;81.22
77005;BME280;67261;53.132;18.006;2023-12-28T04:59:43;100679.27;;;1.96;81.27
77005;BME280;67261;53.132;18.006;2023-12-28T05:02:10;100676.48;;;1.98;81.10
77005;BME280;67261;53.132;18.006;2023-12-28T05:04:37;100670.48;;;1.99;81.16
77005;BME280;67261;53.132;18.006;2023-12-28T05:07:07;100667.63;;;2.00;81.13
77005;BME280;67261;53.132;18.006;2023-12-28T05:09:34;100678.19;;;2.01;81.13
77005;BME280;67261;53.132;18.006;2023-12-28T05:12:01;100664.45;;;2.00;81.24
77005;BME280;67261;53.132;18.006;2023-12-28T05:14:31;100653.81;;;2.00;81.31
77005;BME280;67261;53.132;18.006;2023-12-28T05:16:58;100651.88;;;2.01;81.31
77005;BME280;67261;53.132;18.006;2023-12-28T05:19:30;100645.16;;;2.02;81.29
77005;BME280;67261;53.132;18.006;2023-12-28T05:21:57;100652.05;;;2.03;81.28
77005;BME280;67261;53.132;18.006;2023-12-28T05:24:24;100643.80;;;2.07;81.20
77005;BME280;67261;53.132;18.006;2023-12-28T05:26:51;100650.20;;;2.10;81.27
77005;BME280;67261;53.132;18.006;2023-12-28T05:29:18;100656.22;;;2.14;81.16
77005;BME280;67261;53.132;18.006;2023-12-28T05:31:45;100661.48;;;2.19;81.24
77005;BME280;67261;53.132;18.006;2023-12-28T05:34:12;100655.81;;;2.22;81.20
77005;BME280;67261;53.132;18.006;2023-12-28T05:36:39;100653.45;;;2.26;81.01
77005;BME280;67261;53.132;18.006;2023-12-28T05:39:08;100657.27;;;2.29;81.15
77005;BME280;67261;53.132;18.006;2023-12-28T05:41:40;100649.02;;;2.33;81.08
77005;BME280;67261;53.132;18.006;2023-12-28T05:44:07;100637.18;;;2.35;80.99
77005;BME280;67261;53.132;18.006;2023-12-28T05:46:34;100631.74;;;2.38;81.18
77005;BME280;67261;53.132;18.006;2023-12-28T05:49:01;100632.39;;;2.41;81.02
77005;BME280;67261;53.132;18.006;2023-12-28T05:51:28;100627.42;;;2.45;80.93
77005;BME280;67261;53.132;18.006;2023-12-28T05:53:55;100633.83;;;2.48;80.92
77005;BME280;67261;53.132;18.006;2023-12-28T05:56:23;100635.48;;;2.52;80.99
77005;BME280;67261;53.132;18.006;2023-12-28T05:58:51;100635.92;;;2.55;80.87
77005;BME280;67261;53.132;18.006;2023-12-28T06:01:18;100634.73;;;2.58;80.86
77005;BME280;67261;53.132;18.006;2023-12-28T06:03:45;100615.13;;;2.61;80.75
77005;BME280;67261;53.132;18.006;2023-12-28T06:06:12;100601.09;;;2.62;80.79
77005;BME280;67261;53.132;18.006;2023-12-28T06:08:38;100594.66;;;2.64;80.82
77005;BME280;67261;53.132;18.006;2023-12-28T06:11:05;100600.27;;;2.66;80.74
77005;BME280;67261;53.132;18.006;2023-12-28T06:13:32;100596.83;;;2.70;80.63
77005;BME280;67261;53.132;18.006;2023-12-28T06:15:59;100594.84;;;2.73;80.69
77005;BME280;67261;53.132;18.006;2023-12-28T06:18:26;100592.70;;;2.77;80.53
77005;BME280;67261;53.132;18.006;2023-12-28T06:20:53;100600.05;;;2.81;80.69
77005;BME280;67261;53.132;18.006;2023-12-28T06:23:20;100601.85;;;2.85;80.61
77005;BME280;67261;53.132;18.006;2023-12-28T06:25:48;100608.23;;;2.90;80.51
77005;BME280;67261;53.132;18.006;2023-12-28T06:28:15;100603.40;;;2.93;80.55
77005;BME280;67261;53.132;18.006;2023-12-28T06:30:42;100613.52;;;2.96;80.50
77005;BME280;67261;53.132;18.006;2023-12-28T06:33:09;100612.91;;;3.00;80.54
77005;BME280;67261;53.132;18.006;2023-12-28T06:35:36;100610.41;;;3.03;80.53
77005;BME280;67261;53.132;18.006;2023-12-28T06:38:03;100616.44;;;3.07;80.46
77005;BME280;67261;53.132;18.006;2023-12-28T06:40:30;100610.33;;;3.11;80.58
77005;BME280;67261;53.132;18.006;2023-12-28T06:42:58;100606.44;;;3.17;80.58
77005;BME280;67261;53.132;18.006;2023-12-28T06:45:25;100618.67;;;3.21;80.61
77005;BME280;67261;53.132;18.006;2023-12-28T06:47:55;100624.38;;;3.27;80.43
77005;BME280;67261;53.132;18.006;2023-12-28T06:50:22;100629.38;;;3.31;80.47
77005;BME280;67261;53.132;18.006;2023-12-28T06:52:49;100632.95;;;3.35;80.59
77005;BME280;67261;53.132;18.006;2023-12-28T06:55:16;100646.95;;;3.39;80.75
77005;BME280;67261;53.132;18.006;2023-12-28T06:57:44;100647.49;;;3.41;80.82
77005;BME280;67261;53.132;18.006;2023-12-28T07:00:11;100650.20;;;3.43;81.04
77005;BME280;67261;53.132;18.006;2023-12-28T07:02:38;100654.35;;;3.46;81.12
77005;BME280;67261;53.132;18.006;2023-12-28T07:05:06;100655.06;;;3.48;81.25
77005;BME280;67261;53.132;18.006;2023-12-28T07:07:33;100656.14;;;3.50;81.35
77005;BME280;67261;53.132;18.006;2023-12-28T07:10:00;100656.02;;;3.52;81.39
77005;BME280;67261;53.132;18.006;2023-12-28T07:12:27;100656.06;;;3.54;81.67
77005;BME280;67261;53.132;18.006;2023-12-28T07:14:55;100660.00;;;3.57;81.71
77005;BME280;67261;53.132;18.006;2023-12-28T07:17:22;100653.20;;;3.59;81.90
77005;BME280;67261;53.132;18.006;2023-12-28T07:19:49;100657.08;;;3.61;82.07
77005;BME280;67261;53.132;18.006;2023-12-28T07:22:16;100660.98;;;3.63;82.15
77005;BME280;67261;53.132;18.006;2023-12-28T07:24:44;100662.73;;;3.68;82.17
77005;BME280;67261;53.132;18.006;2023-12-28T07:27:11;100659.64;;;3.71;82.36
77005;BME280;67261;53.132;18.006;2023-12-28T07:29:38;100664.75;;;3.76;82.26
77005;BME280;67261;53.132;18.006;2023-12-28T07:32:07;100671.34;;;3.79;82.51
77005;BME280;67261;53.132;18.006;2023-12-28T07:34:37;100676.42;;;3.83;82.48
77005;BME280;67261;53.132;18.006;2023-12-28T07:37:04;100680.71;;;3.87;82.66
77005;BME280;67261;53.132;18.006;2023-12-28T07:39:33;100680.98;;;3.91;82.71
77005;BME280;67261;53.132;18.006;2023-12-28T07:42:01;100685.05;;;3.93;82.72
77005;BME280;67261;53.132;18.006;2023-12-28T07:44:29;100689.02;;;3.96;82.56
77005;BME280;67261;53.132;18.006;2023-12-28T07:46:56;100688.55;;;3.99;82.59
77005;BME280;67261;53.132;18.006;2023-12-28T07:49:23;100689.88;;;4.03;82.75
77005;BME280;67261;53.132;18.006;2023-12-28T07:51:50;100684.88;;;4.06;82.73
77005;BME280;67261;53.132;18.006;2023-12-28T07:54:17;100683.35;;;4.10;82.60
77005;BME280;67261;53.132;18.006;2023-12-28T07:56:45;100686.35;;;4.15;82.49
77005;BME280;67261;53.132;18.006;2023-12-28T07:59:15;100689.23;;;4.18;82.44
77005;BME280;67261;53.132;18.006;2023-12-28T08:01:42;100691.58;;;4.22;82.67
77005;BME280;67261;53.132;18.006;2023-12-28T08:04:10;100691.43;;;4.26;82.67
77005;BME280;67261;53.132;18.006;2023-12-28T08:06:37;100691.86;;;4.30;82.73
77005;BME280;67261;53.132;18.006;2023-12-28T08:09:04;100695.52;;;4.35;82.77
77005;BME280;67261;53.132;18.006;2023-12-28T08:11:31;100695.37;;;4.39;82.79
77005;BME280;67261;53.132;18.006;2023-12-28T08:13:58;100698.56;;;4.46;82.72
77005;BME280;67261;53.132;18.006;2023-12-28T08:16:25;100697.77;;;4.52;82.75
77005;BME280;67261;53.132;18.006;2023-12-28T08:18:53;100695.17;;;4.58;82.66
77005;BME280;67261;53.132;18.006;2023-12-28T08:21:20;100697.64;;;4.62;82.65
77005;BME280;67261;53.132;18.006;2023-12-28T08:23:47;100701.83;;;4.69;82.68
77005;BME280;67261;53.132;18.006;2023-12-28T08:26:14;100705.95;;;4.75;82.77
77005;BME280;67261;53.132;18.006;2023-12-28T08:28:41;100707.70;;;4.82;82.60
77005;BME280;67261;53.132;18.006;2023-12-28T08:31:08;100695.26;;;4.89;82.81
77005;BME280;67261;53.132;18.006;2023-12-28T08:33:36;100694.34;;;4.96;82.58
77005;BME280;67261;53.132;18.006;2023-12-28T08:36:07;100703.48;;;5.02;82.67
77005;BME280;67261;53.132;18.006;2023-12-28T08:38:38;100703.52;;;5.09;82.74
77005;BME280;67261;53.132;18.006;2023-12-28T08:41:05;100707.56;;;5.15;82.61
77005;BME280;67261;53.132;18.006;2023-12-28T08:43:36;100700.21;;;5.21;82.65
77005;BME280;67261;53.132;18.006;2023-12-28T08:46:07;100705.72;;;5.27;82.51
77005;BME280;67261;53.132;18.006;2023-12-28T08:48:35;100712.73;;;5.32;82.42
77005;BME280;67261;53.132;18.006;2023-12-28T08:51:02;100718.31;;;5.37;82.65
77005;BME280;67261;53.132;18.006;2023-12-28T08:53:29;100719.32;;;5.42;82.50
77005;BME280;67261;53.132;18.006;2023-12-28T08:55:56;100728.31;;;5.46;82.38
77005;BME280;67261;53.132;18.006;2023-12-28T08:58:23;100731.86;;;5.48;82.37
77005;BME280;67261;53.132;18.006;2023-12-28T09:00:50;100718.01;;;5.49;82.43
77005;BME280;67261;53.132;18.006;2023-12-28T09:03:17;100726.73;;;5.52;82.46
77005;BME280;67261;53.132;18.006;2023-12-28T09:05:44;100733.62;;;5.54;82.54
77005;BME280;67261;53.132;18.006;2023-12-28T09:08:11;100733.57;;;5.56;82.50
77005;BME280;67261;53.132;18.006;2023-12-28T09:10:38;100724.63;;;5.63;82.55
77005;BME280;67261;53.132;18.006;2023-12-28T09:13:15;100728.51;;;5.67;82.54
77005;BME280;67261;53.132;18.006;2023-12-28T09:15:43;100723.98;;;5.73;82.51
77005;BME280;67261;53.132;18.006;2023-12-28T09:18:14;100725.14;;;5.81;82.51
77005;BME280;67261;53.132;18.006;2023-12-28T09:20:41;100722.40;;;5.89;82.46
77005;BME280;67261;53.132;18.006;2023-12-28T09:23:08;100718.02;;;5.97;82.40
77005;BME280;67261;53.132;18.006;2023-12-28T09:25:36;100714.66;;;6.06;82.42
77005;BME280;67261;53.132;18.006;2023-12-28T09:28:05;100716.58;;;6.15;82.34
77005;BME280;67261;53.132;18.006;2023-12-28T09:30:32;100711.54;;;6.23;82.21
77005;BME280;67261;53.132;18.006;2023-12-28T09:32:59;100703.25;;;6.33;82.15
77005;BME280;67261;53.132;18.006;2023-12-28T09:35:26;100710.58;;;6.43;81.90
77005;BME280;67261;53.132;18.006;2023-12-28T09:37:53;100713.23;;;6.48;82.06
77005;BME280;67261;53.132;18.006;2023-12-28T09:40:21;100707.16;;;6.54;81.89
77005;BME280;67261;53.132;18.006;2023-12-28T09:42:53;100705.71;;;6.58;81.81
77005;BME280;67261;53.132;18.006;2023-12-28T09:45:27;100706.94;;;6.62;81.62
77005;BME280;67261;53.132;18.006;2023-12-28T09:48:00;100704.56;;;6.66;81.54
77005;BME280;67261;53.132;18.006;2023-12-28T09:50:30;100716.17;;;6.68;81.33
77005;BME280;67261;53.132;18.006;2023-12-28T09:52:57;100711.41;;;6.72;81.23
77005;BME280;67261;53.132;18.006;2023-12-28T09:55:25;100708.55;;;6.77;81.11
77005;BME280;67261;53.132;18.006;2023-12-28T09:57:54;100697.90;;;6.80;81.17
77005;BME280;67261;53.132;18.006;2023-12-28T10:00:22;100699.10;;;6.84;81.11
77005;BME280;67261;53.132;18.006;2023-12-28T10:02:49;100697.43;;;6.88;80.83
77005;BME280;67261;53.132;18.006;2023-12-28T10:05:17;100700.30;;;6.91;80.82
77005;BME280;67261;53.132;18.006;2023-12-28T10:07:44;100703.00;;;6.92;80.66
77005;BME280;67261;53.132;18.006;2023-12-28T10:10:11;100704.96;;;6.94;80.45
77005;BME280;67261;53.132;18.006;2023-12-28T10:12:39;100702.77;;;6.97;80.47
77005;BME280;67261;53.132;18.006;2023-12-28T10:15:06;100704.40;;;7.01;80.38
77005;BME280;67261;53.132;18.006;2023-12-28T10:17:34;100710.38;;;7.02;80.21
77005;BME280;67261;53.132;18.006;2023-12-28T10:20:03;100715.23;;;7.05;80.10
77005;BME280;67261;53.132;18.006;2023-12-28T10:22:37;100713.20;;;7.08;80.12
77005;BME280;67261;53.132;18.006;2023-12-28T10:25:04;100705.95;;;7.11;79.85
77005;BME280;67261;53.132;18.006;2023-12-28T10:27:31;100705.65;;;7.12;79.89
77005;BME280;67261;53.132;18.006;2023-12-28T10:30:01;100703.79;;;7.14;79.72
77005;BME280;67261;53.132;18.006;2023-12-28T10:32:28;100709.20;;;7.14;79.59
77005;BME280;67261;53.132;18.006;2023-12-28T10:34:56;100703.95;;;7.15;79.57
77005;BME280;67261;53.132;18.006;2023-12-28T10:37:26;100703.27;;;7.17;79.36
77005;BME280;67261;53.132;18.006;2023-12-28T10:39:54;100704.93;;;7.18;79.31
77005;BME280;67261;53.132;18.006;2023-12-28T10:42:43;100707.59;;;7.21;79.29
77005;BME280;67261;53.132;18.006;2023-12-28T10:45:14;100713.94;;;7.25;79.21
77005;BME280;67261;53.132;18.006;2023-12-28T10:47:51;100708.10;;;7.27;79.09
77005;BME280;67261;53.132;18.006;2023-12-28T10:50:22;100702.82;;;7.29;78.96
77005;BME280;67261;53.132;18.006;2023-12-28T10:52:58;100696.98;;;7.31;78.88
77005;BME280;67261;53.132;18.006;2023-12-28T10:55:34;100699.02;;;7.34;78.86
77005;BME280;67261;53.132;18.006;2023-12-28T10:58:40;100701.38;;;7.35;78.84
77005;BME280;67261;53.132;18.006;2023-12-28T11:01:12;100695.07;;;7.37;78.73
77005;BME280;67261;53.132;18.006;2023-12-28T11:03:46;100695.52;;;7.40;78.60
77005;BME280;67261;53.132;18.006;2023-12-28T11:06:17;100694.95;;;7.42;78.50
77005;BME280;67261;53.132;18.006;2023-12-28T11:08:46;100695.27;;;7.43;78.49
77005;BME280;67261;53.132;18.006;2023-12-28T11:11:17;100693.85;;;7.43;78.52
77005;BME280;67261;53.132;18.006;2023-12-28T11:13:46;100691.13;;;7.45;78.51
77005;BME280;67261;53.132;18.006;2023-12-28T11:16:14;100687.34;;;7.46;78.42
77005;BME280;67261;53.132;18.006;2023-12-28T11:18:42;100682.17;;;7.47;78.35
77005;BME280;67261;53.132;18.006;2023-12-28T11:21:10;100680.38;;;7.48;78.30
77005;BME280;67261;53.132;18.006;2023-12-28T11:23:39;100683.20;;;7.47;78.15
77005;BME280;67261;53.132;18.006;2023-12-28T11:26:16;100684.21;;;7.48;78.03
77005;BME280;67261;53.132;18.006;2023-12-28T11:28:44;100677.51;;;7.50;78.05
77005;BME280;67261;53.132;18.006;2023-12-28T11:31:14;100674.24;;;7.53;78.13
77005;BME280;67261;53.132;18.006;2023-12-28T11:33:46;100670.36;;;7.55;77.94
77005;BME280;67261;53.132;18.006;2023-12-28T11:36:31;100674.32;;;7.58;77.96
77005;BME280;67261;53.132;18.006;2023-12-28T11:39:01;100666.39;;;7.60;77.82
77005;BME280;67261;53.132;18.006;2023-12-28T11:41:31;100666.93;;;7.60;77.81
77005;BME280;67261;53.132;18.006;2023-12-28T11:44:01;100660.27;;;7.62;77.71
77005;BME280;67261;53.132;18.006;2023-12-28T11:46:30;100654.39;;;7.62;77.58
77005;BME280;67261;53.132;18.006;2023-12-28T11:49:09;100658.67;;;7.64;77.52
77005;BME280;67261;53.132;18.006;2023-12-28T11:51:38;100648.94;;;7.64;77.45
77005;BME280;67261;53.132;18.006;2023-12-28T11:54:06;100651.77;;;7.66;77.44
77005;BME280;67261;53.132;18.006;2023-12-28T11:56:33;100651.48;;;7.70;77.44
77005;BME280;67261;53.132;18.006;2023-12-28T11:59:00;100651.31;;;7.72;77.35
77005;BME280;67261;53.132;18.006;2023-12-28T12:01:29;100649.39;;;7.72;77.19
77005;BME280;67261;53.132;18.006;2023-12-28T12:03:56;100649.23;;;7.71;77.30
77005;BME280;67261;53.132;18.006;2023-12-28T12:06:29;100650.11;;;7.71;77.25
77005;BME280;67261;53.132;18.006;2023-12-28T12:08:57;100643.86;;;7.71;77.23
77005;BME280;67261;53.132;18.006;2023-12-28T12:11:28;100642.37;;;7.69;77.17
77005;BME280;67261;53.132;18.006;2023-12-28T12:13:57;100642.85;;;7.70;77.23
77005;BME280;67261;53.132;18.006;2023-12-28T12:16:24;100648.72;;;7.69;77.25
77005;BME280;67261;53.132;18.006;2023-12-28T12:18:51;100639.45;;;7.66;77.13
77005;BME280;67261;53.132;18.006;2023-12-28T12:21:18;100644.52;;;7.62;77.17
77005;BME280;67261;53.132;18.006;2023-12-28T12:23:45;100648.27;;;7.60;77.33
77005;BME280;67261;53.132;18.006;2023-12-28T12:26:13;100644.45;;;7.56;77.22
77005;BME280;67261;53.132;18.006;2023-12-28T12:28:40;100644.41;;;7.50;77.29
77005;BME280;67261;53.132;18.006;2023-12-28T12:31:08;100642.34;;;7.46;77.38
77005;BME280;67261;53.132;18.006;2023-12-28T12:33:35;100641.68;;;7.41;77.43
77005;BME280;67261;53.132;18.006;2023-12-28T12:36:02;100642.04;;;7.36;77.53
77005;BME280;67261;53.132;18.006;2023-12-28T12:38:30;100647.20;;;7.33;77.50
77005;BME280;67261;53.132;18.006;2023-12-28T12:40:58;100650.08;;;7.28;77.58
77005;BME280;67261;53.132;18.006;2023-12-28T12:43:25;100651.27;;;7.25;77.71
77005;BME280;67261;53.132;18.006;2023-12-28T12:45:55;100653.73;;;7.20;77.75
77005;BME280;67261;53.132;18.006;2023-12-28T12:48:22;100649.20;;;7.18;77.71
77005;BME280;67261;53.132;18.006;2023-12-28T12:50:49;100651.77;;;7.17;77.81
77005;BME280;67261;53.132;18.006;2023-12-28T12:53:19;100654.71;;;7.15;77.94
77005;BME280;67261;53.132;18.006;2023-12-28T12:55:46;100657.05;;;7.15;77.75